sensor_id;sensor_type;location;lat;lon;timestamp;pressure;altitude;pressure_sealevel;temperature;humidity
20115;BME280;10218;42.874;25.320;2022-08-06T00:02:15;96871.66;;;20.85;100.00
20115;BME280;10218;42.874;25.320;2022-08-06T00:04:43;96876.56;;;20.72;100.00
20115;BME280;10218;42.874;25.320;2022-08-06T00:07:10;96882.75;;;20.84;100.00
20115;BME280;10218;42.874;25.320;2022-08-06T00:09:37;96869.97;;;20.68;100.00
20115;BME280;10218;42.874;25.320;2022-08-06T00:12:04;96872.62;;;20.79;100.00
20115;BME280;10218;42.874;25.320;2022-08-06T00:14:32;96871.81;;;20.79;100.00
20115;BME280;10218;42.874;25.320;2022-08-06T00:17:00;96866.00;;;20.87;100.00
20115;BME280;10218;42.874;25.320;2022-08-06T00:19:27;96866.53;;;20.72;100.00
20115;BME280;10218;42.874;25.320;2022-08-06T00:21:55;96871.72;;;20.74;100.00
20115;BME280;10218;42.874;25.320;2022-08-06T00:24:22;96869.59;;;20.76;100.00
20115;BME280;10218;42.874;25.320;2022-08-06T00:26:49;96864.47;;;20.79;100.00
20115;BME280;10218;42.874;25.320;2022-08-06T00:29:17;96869.72;;;20.69;100.00
20115;BME280;10218;42.874;25.320;2022-08-06T00:31:44;96864.78;;;20.66;100.00
20115;BME280;10218;42.874;25.320;2022-08-06T00:34:11;96863.16;;;20.65;100.00
20115;BME280;10218;42.874;25.320;2022-08-06T00:36:38;96873.12;;;20.48;100.00
20115;BME280;10218;42.874;25.320;2022-08-06T00:39:06;96870.25;;;20.55;100.00
20115;BME280;10218;42.874;25.320;2022-08-06T00:41:34;96871.66;;;20.57;100.00
20115;BME280;10218;42.874;25.320;2022-08-06T00:44:02;96870.41;;;20.48;100.00
20115;BME280;10218;42.874;25.320;2022-08-06T00:46:29;96859.63;;;20.53;100.00
20115;BME280;10218;42.874;25.320;2022-08-06T00:48:57;96873.22;;;20.53;100.00
20115;BME280;10218;42.874;25.320;2022-08-06T00:51:24;96874.66;;;20.44;100.00
20115;BME280;10218;42.874;25.320;2022-08-06T00:53:52;96872.16;;;20.54;100.00
20115;BME280;10218;42.874;25.320;2022-08-06T00:56:20;96864.28;;;20.69;100.00
20115;BME280;10218;42.874;25.320;2022-08-06T00:58:47;96862.38;;;20.81;100.00
20115;BME280;10218;42.874;25.320;2022-08-06T01:01:14;96864.47;;;20.79;100.00
20115;BME280;10218;42.874;25.320;2022-08-06T01:03:42;96869.91;;;20.79;100.00
20115;BME280;10218;42.874;25.320;2022-08-06T01:06:09;96875.75;;;20.71;100.00
20115;BME280;10218;42.874;25.320;2022-08-06T01:08:36;96875.19;;;20.58;100.00
20115;BME280;10218;42.874;25.320;2022-08-06T01:11:03;96877.59;;;20.54;100.00
20115;BME280;10218;42.874;25.320;2022-08-06T01:13:34;96867.47;;;20.38;100.00
20115;BME280;10218;42.874;25.320;2022-08-06T01:16:27;96884.22;;;20.46;100.00
20115;BME280;10218;42.874;25.320;2022-08-06T01:21:42;96872.25;;;20.31;100.00
20115;BME280;10218;42.874;25.320;2022-08-06T01:29:52;96875.37;;;20.39;100.00
20115;BME280;10218;42.874;25.320;2022-08-06T01:32:28;96876.94;;;20.35;100.00
20115;BME280;10218;42.874;25.320;2022-08-06T01:35:05;96874.63;;;20.16;100.00
20115;BME280;10218;42.874;25.320;2022-08-06T01:37:55;96879.88;;;20.34;100.00
20115;BME280;10218;42.874;25.320;2022-08-06T01:40:32;96871.50;;;20.24;100.00
20115;BME280;10218;42.874;25.320;2022-08-06T01:43:02;96862.84;;;20.50;100.00
20115;BME280;10218;42.874;25.320;2022-08-06T01:45:32;96874.47;;;20.62;100.00
20115;BME280;10218;42.874;25.320;2022-08-06T01:48:08;96877.78;;;20.64;100.00
20115;BME280;10218;42.874;25.320;2022-08-06T01:50:41;96870.84;;;20.85;100.00
20115;BME280;10218;42.874;25.320;2022-08-06T01:53:13;96867.53;;;20.83;100.00
20115;BME280;10218;42.874;25.320;2022-08-06T01:55:44;96872.22;;;20.71;100.00
20115;BME280;10218;42.874;25.320;2022-08-06T01:58:15;96864.41;;;20.74;100.00
20115;BME280;10218;42.874;25.320;2022-08-06T02:00:46;96864.44;;;20.63;100.00
20115;BME280;10218;42.874;25.320;2022-08-06T02:03:33;96864.34;;;20.58;100.00
20115;BME280;10218;42.874;25.320;2022-08-06T02:06:03;96859.50;;;20.20;100.00
20115;BME280;10218;42.874;25.320;2022-08-06T02:08:34;96857.94;;;20.24;100.00
20115;BME280;10218;42.874;25.320;2022-08-06T02:11:09;96860.31;;;20.20;100.00
20115;BME280;10218;42.874;25.320;2022-08-06T02:13:37;96861.91;;;20.04;100.00
20115;BME280;10218;42.874;25.320;2022-08-06T02:16:09;96870.91;;;20.22;100.00
20115;BME280;10218;42.874;25.320;2022-08-06T02:18:42;96858.84;;;20.01;100.00
20115;BME280;10218;42.874;25.320;2022-08-06T02:21:15;96862.34;;;20.01;100.00
20115;BME280;10218;42.874;25.320;2022-08-06T02:23:44;96854.00;;;19.91;100.00
20115;BME280;10218;42.874;25.320;2022-08-06T02:26:13;96861.69;;;19.94;100.00
20115;BME280;10218;42.874;25.320;2022-08-06T02:28:42;96867.94;;;19.83;100.00
20115;BME280;10218;42.874;25.320;2022-08-06T02:31:10;96859.56;;;19.73;100.00
20115;BME280;10218;42.874;25.320;2022-08-06T02:33:38;96865.59;;;19.75;100.00
20115;BME280;10218;42.874;25.320;2022-08-06T02:38:41;96869.47;;;19.56;100.00
20115;BME280;10218;42.874;25.320;2022-08-06T02:41:24;96870.69;;;19.60;100.00
20115;BME280;10218;42.874;25.320;2022-08-06T02:44:17;96870.56;;;19.55;100.00
20115;BME280;10218;42.874;25.320;2022-08-06T02:46:50;96867.03;;;19.54;100.00
20115;BME280;10218;42.874;25.320;2022-08-06T02:49:23;96869.22;;;19.46;100.00
20115;BME280;10218;42.874;25.320;2022-08-06T02:52:21;96863.47;;;19.54;100.00
20115;BME280;10218;42.874;25.320;2022-08-06T02:54:56;96869.13;;;19.64;100.00
20115;BME280;10218;42.874;25.320;2022-08-06T02:57:33;96849.00;;;19.60;100.00
20115;BME280;10218;42.874;25.320;2022-08-06T03:00:05;96855.47;;;19.71;100.00
20115;BME280;10218;42.874;25.320;2022-08-06T03:02:39;96862.06;;;19.75;100.00
20115;BME280;10218;42.874;25.320;2022-08-06T03:05:19;96863.94;;;19.74;100.00
20115;BME280;10218;42.874;25.320;2022-08-06T03:07:50;96858.16;;;19.82;100.00
20115;BME280;10218;42.874;25.320;2022-08-06T03:10:23;96853.00;;;19.81;100.00
20115;BME280;10218;42.874;25.320;2022-08-06T03:12:52;96855.94;;;19.68;100.00
20115;BME280;10218;42.874;25.320;2022-08-06T03:15:23;96849.22;;;19.58;100.00
20115;BME280;10218;42.874;25.320;2022-08-06T03:17:51;96862.19;;;19.80;100.00
20115;BME280;10218;42.874;25.320;2022-08-06T03:20:23;96856.72;;;19.91;100.00
20115;BME280;10218;42.874;25.320;2022-08-06T03:22:52;96870.19;;;19.75;100.00
20115;BME280;10218;42.874;25.320;2022-08-06T03:25:19;96855.53;;;19.87;100.00
20115;BME280;10218;42.874;25.320;2022-08-06T03:27:47;96870.53;;;19.78;100.00
20115;BME280;10218;42.874;25.320;2022-08-06T03:30:16;96873.47;;;19.77;100.00
20115;BME280;10218;42.874;25.320;2022-08-06T03:32:45;96877.59;;;19.68;100.00
20115;BME280;10218;42.874;25.320;2022-08-06T03:35:13;96865.94;;;19.67;100.00
20115;BME280;10218;42.874;25.320;2022-08-06T03:37:43;96876.31;;;19.47;100.00
20115;BME280;10218;42.874;25.320;2022-08-06T03:40:12;96879.12;;;19.52;100.00
20115;BME280;10218;42.874;25.320;2022-08-06T03:42:40;96864.19;;;19.49;100.00
20115;BME280;10218;42.874;25.320;2022-08-06T03:45:08;96878.78;;;19.72;100.00
20115;BME280;10218;42.874;25.320;2022-08-06T03:47:52;96884.00;;;19.50;100.00
20115;BME280;10218;42.874;25.320;2022-08-06T03:50:34;96887.88;;;19.54;100.00
20115;BME280;10218;42.874;25.320;2022-08-06T03:53:05;96881.25;;;19.73;100.00
20115;BME280;10218;42.874;25.320;2022-08-06T03:55:35;96880.66;;;19.48;100.00
20115;BME280;10218;42.874;25.320;2022-08-06T03:58:09;96886.19;;;19.76;100.00
20115;BME280;10218;42.874;25.320;2022-08-06T04:00:46;96888.44;;;19.79;100.00
20115;BME280;10218;42.874;25.320;2022-08-06T04:03:17;96877.00;;;20.00;100.00
20115;BME280;10218;42.874;25.320;2022-08-06T04:05:46;96874.63;;;20.16;100.00
20115;BME280;10218;42.874;25.320;2022-08-06T04:08:14;96876.37;;;20.10;100.00
20115;BME280;10218;42.874;25.320;2022-08-06T04:10:47;96875.44;;;20.16;100.00
20115;BME280;10218;42.874;25.320;2022-08-06T04:13:20;96880.75;;;20.11;100.00
20115;BME280;10218;42.874;25.320;2022-08-06T04:15:49;96879.53;;;20.19;100.00
20115;BME280;10218;42.874;25.320;2022-08-06T04:18:20;96886.88;;;20.06;100.00
20115;BME280;10218;42.874;25.320;2022-08-06T04:20:53;96887.34;;;20.03;100.00
20115;BME280;10218;42.874;25.320;2022-08-06T04:23:21;96884.97;;;20.07;100.00
20115;BME280;10218;42.874;25.320;2022-08-06T04:25:51;96889.69;;;20.12;100.00
20115;BME280;10218;42.874;25.320;2022-08-06T04:28:21;96884.59;;;20.38;100.00
20115;BME280;10218;42.874;25.320;2022-08-06T04:30:50;96891.91;;;20.38;100.00
20115;BME280;10218;42.874;25.320;2022-08-06T04:33:21;96886.22;;;20.51;100.00
20115;BME280;10218;42.874;25.320;2022-08-06T04:35:48;96886.94;;;20.46;100.00
20115;BME280;10218;42.874;25.320;2022-08-06T04:38:17;96887.44;;;20.72;100.00
20115;BME280;10218;42.874;25.320;2022-08-06T04:40:45;96883.09;;;20.59;100.00
20115;BME280;10218;42.874;25.320;2022-08-06T04:43:13;96886.88;;;20.58;100.00
20115;BME280;10218;42.874;25.320;2022-08-06T04:45:42;96881.84;;;20.78;100.00
20115;BME280;10218;42.874;25.320;2022-08-06T04:48:11;96884.41;;;20.85;100.00
20115;BME280;10218;42.874;25.320;2022-08-06T04:50:38;96890.13;;;21.00;100.00
20115;BME280;10218;42.874;25.320;2022-08-06T04:53:08;96897.81;;;21.20;100.00
20115;BME280;10218;42.874;25.320;2022-08-06T04:55:44;96898.69;;;21.37;100.00
20115;BME280;10218;42.874;25.320;2022-08-06T04:58:15;96901.78;;;21.29;100.00
20115;BME280;10218;42.874;25.320;2022-08-06T05:00:46;96910.25;;;21.16;100.00
20115;BME280;10218;42.874;25.320;2022-08-06T05:03:14;96902.50;;;21.08;100.00
20115;BME280;10218;42.874;25.320;2022-08-06T05:06:02;96915.69;;;21.49;100.00
20115;BME280;10218;42.874;25.320;2022-08-06T05:08:32;96910.62;;;21.53;100.00
20115;BME280;10218;42.874;25.320;2022-08-06T05:13:45;96912.91;;;21.77;100.00
20115;BME280;10218;42.874;25.320;2022-08-06T05:16:14;96913.13;;;21.93;100.00
20115;BME280;10218;42.874;25.320;2022-08-06T05:18:46;96914.28;;;22.13;100.00
20115;BME280;10218;42.874;25.320;2022-08-06T05:21:23;96914.41;;;22.24;100.00
20115;BME280;10218;42.874;25.320;2022-08-06T05:23:53;96914.34;;;22.40;100.00
20115;BME280;10218;42.874;25.320;2022-08-06T05:26:21;96917.03;;;22.79;100.00
20115;BME280;10218;42.874;25.320;2022-08-06T05:28:48;96908.28;;;22.77;100.00
20115;BME280;10218;42.874;25.320;2022-08-06T05:31:31;96915.75;;;23.13;100.00
20115;BME280;10218;42.874;25.320;2022-08-06T05:33:58;96915.13;;;23.33;100.00
20115;BME280;10218;42.874;25.320;2022-08-06T05:36:25;96907.37;;;23.83;96.49
20115;BME280;10218;42.874;25.320;2022-08-06T05:38:52;96903.75;;;24.62;88.57
20115;BME280;10218;42.874;25.320;2022-08-06T05:41:20;96904.41;;;24.94;85.86
20115;BME280;10218;42.874;25.320;2022-08-06T05:43:47;96901.97;;;24.98;86.56
20115;BME280;10218;42.874;25.320;2022-08-06T05:46:19;96911.53;;;25.05;86.53
20115;BME280;10218;42.874;25.320;2022-08-06T05:49:28;96904.44;;;25.04;85.87
20115;BME280;10218;42.874;25.320;2022-08-06T05:52:09;96903.66;;;25.29;84.02
20115;BME280;10218;42.874;25.320;2022-08-06T06:00:06;96903.94;;;25.98;77.45
20115;BME280;10218;42.874;25.320;2022-08-06T06:02:44;96897.91;;;26.02;74.71
20115;BME280;10218;42.874;25.320;2022-08-06T06:05:12;96909.94;;;26.26;69.91
20115;BME280;10218;42.874;25.320;2022-08-06T06:07:41;96908.31;;;26.25;71.86
20115;BME280;10218;42.874;25.320;2022-08-06T06:10:09;96906.41;;;26.25;73.28
20115;BME280;10218;42.874;25.320;2022-08-06T06:12:36;96900.94;;;27.34;66.37
20115;BME280;10218;42.874;25.320;2022-08-06T06:15:05;96907.75;;;27.41;63.39
20115;BME280;10218;42.874;25.320;2022-08-06T06:17:51;96905.72;;;27.91;59.52
20115;BME280;10218;42.874;25.320;2022-08-06T06:21:16;96901.88;;;26.60;64.94
20115;BME280;10218;42.874;25.320;2022-08-06T06:23:55;96908.78;;;27.55;60.09
20115;BME280;10218;42.874;25.320;2022-08-06T06:29:11;96910.69;;;28.65;53.55
20115;BME280;10218;42.874;25.320;2022-08-06T06:32:08;96912.97;;;29.24;51.48
20115;BME280;10218;42.874;25.320;2022-08-06T06:34:50;96903.56;;;29.82;49.85
20115;BME280;10218;42.874;25.320;2022-08-06T06:37:31;96897.53;;;29.80;50.38
20115;BME280;10218;42.874;25.320;2022-08-06T06:48:42;96893.22;;;29.73;48.78
20115;BME280;10218;42.874;25.320;2022-08-06T06:51:19;96896.75;;;29.60;50.12
20115;BME280;10218;42.874;25.320;2022-08-06T06:53:49;96894.75;;;29.98;49.18
20115;BME280;10218;42.874;25.320;2022-08-06T06:56:20;96883.25;;;29.96;49.06
20115;BME280;10218;42.874;25.320;2022-08-06T06:58:57;96886.56;;;29.93;49.12
20115;BME280;10218;42.874;25.320;2022-08-06T07:01:28;96879.75;;;29.72;49.35
20115;BME280;10218;42.874;25.320;2022-08-06T07:04:00;96884.84;;;29.65;49.19
20115;BME280;10218;42.874;25.320;2022-08-06T07:06:32;96883.72;;;30.58;48.63
20115;BME280;10218;42.874;25.320;2022-08-06T07:09:00;96885.91;;;30.29;48.77
20115;BME280;10218;42.874;25.320;2022-08-06T07:11:29;96883.59;;;30.90;47.88
20115;BME280;10218;42.874;25.320;2022-08-06T07:13:58;96877.66;;;30.15;49.09
20115;BME280;10218;42.874;25.320;2022-08-06T07:16:27;96872.72;;;29.66;49.96
20115;BME280;10218;42.874;25.320;2022-08-06T07:18:55;96881.00;;;29.28;50.60
20115;BME280;10218;42.874;25.320;2022-08-06T07:21:22;96880.53;;;29.03;52.22
20115;BME280;10218;42.874;25.320;2022-08-06T07:23:51;96874.53;;;29.19;50.43
20115;BME280;10218;42.874;25.320;2022-08-06T07:26:21;96876.53;;;30.30;48.25
20115;BME280;10218;42.874;25.320;2022-08-06T07:28:51;96874.78;;;29.74;50.60
20115;BME280;10218;42.874;25.320;2022-08-06T07:31:23;96866.53;;;30.34;49.11
20115;BME280;10218;42.874;25.320;2022-08-06T07:33:53;96866.94;;;30.13;47.79
20115;BME280;10218;42.874;25.320;2022-08-06T07:36:24;96866.81;;;29.91;49.04
20115;BME280;10218;42.874;25.320;2022-08-06T07:38:58;96862.47;;;30.72;47.55
20115;BME280;10218;42.874;25.320;2022-08-06T07:41:29;96869.34;;;31.47;44.23
20115;BME280;10218;42.874;25.320;2022-08-06T07:43:58;96851.59;;;31.83;42.82
20115;BME280;10218;42.874;25.320;2022-08-06T07:46:31;96866.53;;;31.82;42.18
20115;BME280;10218;42.874;25.320;2022-08-06T07:49:04;96867.44;;;31.69;41.59
20115;BME280;10218;42.874;25.320;2022-08-06T07:51:33;96870.88;;;32.06;40.38
20115;BME280;10218;42.874;25.320;2022-08-06T07:54:06;96867.81;;;31.76;40.54
20115;BME280;10218;42.874;25.320;2022-08-06T07:56:38;96868.66;;;32.08;38.50
20115;BME280;10218;42.874;25.320;2022-08-06T07:59:07;96869.66;;;32.51;38.06
20115;BME280;10218;42.874;25.320;2022-08-06T08:01:36;96866.00;;;32.25;38.68
20115;BME280;10218;42.874;25.320;2022-08-06T08:04:05;96862.84;;;31.87;38.77
20115;BME280;10218;42.874;25.320;2022-08-06T08:06:53;96867.41;;;32.53;38.58
20115;BME280;10218;42.874;25.320;2022-08-06T08:09:23;96863.69;;;32.18;38.01
20115;BME280;10218;42.874;25.320;2022-08-06T08:11:51;96867.09;;;31.93;39.09
20115;BME280;10218;42.874;25.320;2022-08-06T08:14:20;96862.50;;;32.98;37.09
20115;BME280;10218;42.874;25.320;2022-08-06T08:16:49;96867.78;;;31.99;37.44
20115;BME280;10218;42.874;25.320;2022-08-06T08:19:26;96871.16;;;33.05;37.14
20115;BME280;10218;42.874;25.320;2022-08-06T08:22:04;96867.87;;;33.03;37.58
20115;BME280;10218;42.874;25.320;2022-08-06T08:24:33;96870.47;;;32.91;38.58
20115;BME280;10218;42.874;25.320;2022-08-06T08:27:02;96879.84;;;32.03;39.99
20115;BME280;10218;42.874;25.320;2022-08-06T08:29:35;96870.69;;;32.55;40.52
20115;BME280;10218;42.874;25.320;2022-08-06T08:32:04;96865.34;;;31.75;41.02
20115;BME280;10218;42.874;25.320;2022-08-06T08:34:31;96868.91;;;31.31;41.74
20115;BME280;10218;42.874;25.320;2022-08-06T08:36:59;96869.28;;;32.36;39.88
20115;BME280;10218;42.874;25.320;2022-08-06T08:39:26;96856.66;;;33.00;38.56
20115;BME280;10218;42.874;25.320;2022-08-06T08:41:59;96864.34;;;33.55;38.04
20115;BME280;10218;42.874;25.320;2022-08-06T08:44:29;96858.22;;;34.21;36.96
20115;BME280;10218;42.874;25.320;2022-08-06T08:46:58;96866.38;;;34.09;37.00
20115;BME280;10218;42.874;25.320;2022-08-06T08:49:38;96858.59;;;32.91;38.41
20115;BME280;10218;42.874;25.320;2022-08-06T08:52:14;96843.59;;;33.95;36.71
20115;BME280;10218;42.874;25.320;2022-08-06T08:54:47;96867.84;;;32.38;39.04
20115;BME280;10218;42.874;25.320;2022-08-06T08:57:15;96862.84;;;32.49;39.02
20115;BME280;10218;42.874;25.320;2022-08-06T08:59:43;96855.66;;;32.96;38.36
20115;BME280;10218;42.874;25.320;2022-08-06T09:02:12;96852.44;;;33.28;37.01
20115;BME280;10218;42.874;25.320;2022-08-06T09:04:41;96848.53;;;33.81;35.95
20115;BME280;10218;42.874;25.320;2022-08-06T09:07:09;96856.75;;;34.15;35.09
20115;BME280;10218;42.874;25.320;2022-08-06T09:09:39;96846.09;;;33.45;36.36
20115;BME280;10218;42.874;25.320;2022-08-06T09:12:07;96853.69;;;31.78;39.41
20115;BME280;10218;42.874;25.320;2022-08-06T09:14:37;96865.00;;;32.60;38.02
20115;BME280;10218;42.874;25.320;2022-08-06T09:17:05;96854.06;;;33.64;37.03
20115;BME280;10218;42.874;25.320;2022-08-06T09:19:33;96853.13;;;33.77;36.70
20115;BME280;10218;42.874;25.320;2022-08-06T09:22:02;96856.75;;;35.21;34.69
20115;BME280;10218;42.874;25.320;2022-08-06T09:24:29;96854.03;;;34.45;34.93
20115;BME280;10218;42.874;25.320;2022-08-06T09:27:13;96847.88;;;33.84;35.49
20115;BME280;10218;42.874;25.320;2022-08-06T09:29:52;96845.31;;;34.25;35.88
20115;BME280;10218;42.874;25.320;2022-08-06T09:32:42;96861.75;;;33.24;36.95
20115;BME280;10218;42.874;25.320;2022-08-06T09:35:35;96848.22;;;33.57;35.90
20115;BME280;10218;42.874;25.320;2022-08-06T09:38:05;96849.19;;;35.30;33.93
20115;BME280;10218;42.874;25.320;2022-08-06T09:40:32;96853.16;;;36.15;32.44
20115;BME280;10218;42.874;25.320;2022-08-06T09:42:59;96845.66;;;36.07;32.75
20115;BME280;10218;42.874;25.320;2022-08-06T09:45:27;96840.25;;;35.45;33.16
20115;BME280;10218;42.874;25.320;2022-08-06T09:48:05;96832.84;;;34.49;34.74
20115;BME280;10218;42.874;25.320;2022-08-06T09:50:44;96841.38;;;33.71;36.27
20115;BME280;10218;42.874;25.320;2022-08-06T09:53:13;96828.69;;;33.19;36.61
20115;BME280;10218;42.874;25.320;2022-08-06T09:55:41;96841.59;;;34.13;35.97
20115;BME280;10218;42.874;25.320;2022-08-06T09:58:09;96837.44;;;35.45;33.50
20115;BME280;10218;42.874;25.320;2022-08-06T10:00:37;96835.03;;;36.66;32.01
20115;BME280;10218;42.874;25.320;2022-08-06T10:03:09;96825.72;;;34.98;34.29
20115;BME280;10218;42.874;25.320;2022-08-06T10:05:44;96834.25;;;35.55;32.90
20115;BME280;10218;42.874;25.320;2022-08-06T10:08:14;96833.56;;;35.58;33.24
20115;BME280;10218;42.874;25.320;2022-08-06T10:10:48;96830.44;;;35.59;32.27
20115;BME280;10218;42.874;25.320;2022-08-06T10:13:23;96826.66;;;36.42;31.99
20115;BME280;10218;42.874;25.320;2022-08-06T10:15:57;96825.66;;;35.69;32.28
20115;BME280;10218;42.874;25.320;2022-08-06T10:18:40;96826.69;;;35.23;32.44
20115;BME280;10218;42.874;25.320;2022-08-06T10:21:13;96834.66;;;35.98;31.88
20115;BME280;10218;42.874;25.320;2022-08-06T10:23:44;96825.50;;;35.98;31.51
20115;BME280;10218;42.874;25.320;2022-08-06T10:26:13;96824.38;;;35.45;32.22
20115;BME280;10218;42.874;25.320;2022-08-06T10:28:46;96814.56;;;35.81;32.11
20115;BME280;10218;42.874;25.320;2022-08-06T10:31:15;96815.03;;;37.13;29.75
20115;BME280;10218;42.874;25.320;2022-08-06T10:36:40;96807.19;;;38.30;28.67
20115;BME280;10218;42.874;25.320;2022-08-06T10:39:10;96800.59;;;37.63;29.24
20115;BME280;10218;42.874;25.320;2022-08-06T10:41:38;96797.69;;;37.59;29.15
20115;BME280;10218;42.874;25.320;2022-08-06T10:44:08;96809.38;;;37.37;29.72
20115;BME280;10218;42.874;25.320;2022-08-06T10:46:36;96796.50;;;37.33;30.20
20115;BME280;10218;42.874;25.320;2022-08-06T10:49:05;96798.28;;;37.81;29.03
20115;BME280;10218;42.874;25.320;2022-08-06T10:51:33;96797.84;;;37.79;29.46
20115;BME280;10218;42.874;25.320;2022-08-06T10:54:00;96802.31;;;37.67;28.55
20115;BME280;10218;42.874;25.320;2022-08-06T10:56:28;96800.47;;;35.86;30.56
20115;BME280;10218;42.874;25.320;2022-08-06T10:58:56;96791.16;;;37.67;28.99
20115;BME280;10218;42.874;25.320;2022-08-06T11:04:29;96780.59;;;37.61;29.22
20115;BME280;10218;42.874;25.320;2022-08-06T11:15:41;96782.38;;;35.80;32.00
20115;BME280;10218;42.874;25.320;2022-08-06T11:18:11;96771.00;;;35.40;32.80
20115;BME280;10218;42.874;25.320;2022-08-06T11:20:41;96777.25;;;36.15;31.32
20115;BME280;10218;42.874;25.320;2022-08-06T11:25:42;96773.97;;;34.93;33.62
20115;BME280;10218;42.874;25.320;2022-08-06T11:28:12;96772.66;;;34.41;34.05
20115;BME280;10218;42.874;25.320;2022-08-06T11:30:42;96767.63;;;34.34;34.42
20115;BME280;10218;42.874;25.320;2022-08-06T11:33:19;96770.44;;;35.26;33.62
20115;BME280;10218;42.874;25.320;2022-08-06T11:35:48;96764.56;;;35.27;32.67
20115;BME280;10218;42.874;25.320;2022-08-06T11:41:29;96768.19;;;38.65;28.60
20115;BME280;10218;42.874;25.320;2022-08-06T11:46:33;96755.06;;;38.49;27.96
20115;BME280;10218;42.874;25.320;2022-08-06T11:51:47;96753.66;;;37.37;29.48
20115;BME280;10218;42.874;25.320;2022-08-06T11:54:24;96748.22;;;38.82;27.83
20115;BME280;10218;42.874;25.320;2022-08-06T11:59:30;96751.91;;;40.01;26.42
20115;BME280;10218;42.874;25.320;2022-08-06T12:01:58;96759.44;;;37.88;28.83
20115;BME280;10218;42.874;25.320;2022-08-06T12:15:03;96745.19;;;35.39;31.80
20115;BME280;10218;42.874;25.320;2022-08-06T12:17:32;96736.38;;;34.75;32.42
20115;BME280;10218;42.874;25.320;2022-08-06T12:20:00;96743.03;;;35.03;32.21
20115;BME280;10218;42.874;25.320;2022-08-06T12:22:32;96742.12;;;35.11;32.08
20115;BME280;10218;42.874;25.320;2022-08-06T12:25:04;96739.75;;;35.43;31.25
20115;BME280;10218;42.874;25.320;2022-08-06T12:27:34;96727.84;;;35.99;30.58
20115;BME280;10218;42.874;25.320;2022-08-06T12:30:04;96730.59;;;35.42;31.29
20115;BME280;10218;42.874;25.320;2022-08-06T12:32:33;96737.06;;;34.72;32.84
20115;BME280;10218;42.874;25.320;2022-08-06T12:35:10;96743.50;;;35.05;32.71
20115;BME280;10218;42.874;25.320;2022-08-06T12:37:44;96744.72;;;34.96;33.07
20115;BME280;10218;42.874;25.320;2022-08-06T12:40:13;96735.47;;;34.42;34.38
20115;BME280;10218;42.874;25.320;2022-08-06T12:45:28;96754.56;;;34.93;34.01
20115;BME280;10218;42.874;25.320;2022-08-06T12:48:05;96749.53;;;34.87;33.69
20115;BME280;10218;42.874;25.320;2022-08-06T12:50:37;96741.53;;;34.85;34.05
20115;BME280;10218;42.874;25.320;2022-08-06T12:53:10;96744.06;;;34.78;33.66
20115;BME280;10218;42.874;25.320;2022-08-06T12:55:46;96739.41;;;35.56;32.82
20115;BME280;10218;42.874;25.320;2022-08-06T12:58:16;96743.28;;;35.10;32.90
20115;BME280;10218;42.874;25.320;2022-08-06T13:00:53;96748.47;;;35.53;32.59
20115;BME280;10218;42.874;25.320;2022-08-06T13:03:22;96747.03;;;35.68;32.63
20115;BME280;10218;42.874;25.320;2022-08-06T13:05:52;96732.22;;;34.60;33.71
20115;BME280;10218;42.874;25.320;2022-08-06T13:08:21;96719.50;;;34.39;33.86
20115;BME280;10218;42.874;25.320;2022-08-06T13:10:49;96721.69;;;34.54;34.26
20115;BME280;10218;42.874;25.320;2022-08-06T13:13:17;96732.94;;;34.99;33.11
20115;BME280;10218;42.874;25.320;2022-08-06T13:16:01;96729.09;;;34.70;33.49
20115;BME280;10218;42.874;25.320;2022-08-06T13:18:29;96724.88;;;34.85;32.71
20115;BME280;10218;42.874;25.320;2022-08-06T13:20:57;96713.56;;;35.11;32.10
20115;BME280;10218;42.874;25.320;2022-08-06T13:23:33;96712.16;;;34.63;32.68
20115;BME280;10218;42.874;25.320;2022-08-06T13:26:26;96706.75;;;33.70;33.93
20115;BME280;10218;42.874;25.320;2022-08-06T13:31:39;96713.91;;;33.80;33.96
20115;BME280;10218;42.874;25.320;2022-08-06T13:34:10;96704.44;;;34.19;33.75
20115;BME280;10218;42.874;25.320;2022-08-06T13:36:40;96703.25;;;34.28;32.44
20115;BME280;10218;42.874;25.320;2022-08-06T13:39:22;96694.06;;;34.37;32.58
20115;BME280;10218;42.874;25.320;2022-08-06T13:42:10;96702.41;;;35.20;31.78
20115;BME280;10218;42.874;25.320;2022-08-06T13:44:42;96691.00;;;36.39;29.86
20115;BME280;10218;42.874;25.320;2022-08-06T13:47:12;96692.13;;;37.58;28.60
20115;BME280;10218;42.874;25.320;2022-08-06T13:49:43;96693.44;;;36.40;29.67
20115;BME280;10218;42.874;25.320;2022-08-06T13:52:11;96687.25;;;36.71;29.63
20115;BME280;10218;42.874;25.320;2022-08-06T13:54:38;96679.44;;;37.17;29.20
20115;BME280;10218;42.874;25.320;2022-08-06T13:57:06;96692.37;;;35.84;31.48
20115;BME280;10218;42.874;25.320;2022-08-06T13:59:34;96685.78;;;35.32;31.65
20115;BME280;10218;42.874;25.320;2022-08-06T14:02:04;96683.63;;;34.54;32.38
20115;BME280;10218;42.874;25.320;2022-08-06T14:04:31;96688.09;;;34.26;32.39
20115;BME280;10218;42.874;25.320;2022-08-06T14:06:58;96691.53;;;34.14;32.31
20115;BME280;10218;42.874;25.320;2022-08-06T14:09:28;96694.16;;;34.49;31.85
20115;BME280;10218;42.874;25.320;2022-08-06T14:12:00;96688.50;;;34.07;32.78
20115;BME280;10218;42.874;25.320;2022-08-06T14:14:29;96688.19;;;33.62;33.83
20115;BME280;10218;42.874;25.320;2022-08-06T14:16:58;96698.16;;;33.55;33.76
20115;BME280;10218;42.874;25.320;2022-08-06T14:19:26;96700.06;;;34.09;33.21
20115;BME280;10218;42.874;25.320;2022-08-06T14:21:53;96695.94;;;33.86;33.67
20115;BME280;10218;42.874;25.320;2022-08-06T14:24:21;96682.47;;;34.05;33.50